EGTK/OXF METAR and TAF weather

Enter ICAO airport designator
Station Type Date Time Source
EGTK METAR 2019/10/20 18:20 UTC NOAA

EGTK 201820Z 36008KT 9999 FEW030 BKN043 09/09 Q1013


Station Type Date Time Source
EGTK Decoded METAR 2019/10/20 18:20 UTC NOAA

Station name not available
Oct 20, 2019 - 02:20 PM EDT / 2019.10.20 1820 UTC
Wind: from the N (360 degrees) at 9 MPH (8 KT):0
Visibility: greater than 7 mile(s):0
Sky conditions: mostly cloudy
Temperature: 48 F (9 C)
Dew Point: 48 F (9 C)
Relative Humidity: 100%
Pressure (altimeter): 29.91 in. Hg (1013 hPa)
ob: EGTK 201820Z 36008KT 9999 FEW030 BKN043 09/09 Q1013
cycle: 18

Station Type Date Time Source
EGTK TAF UTC NOAA

Error!

Example: see airport list